Pagrindinis puslapis
METAR-TAF:

METAR-TAF

Oro uostai :

Viktorija, Mahė, Seišeliai

platuma: 04-40S, ilguma: 055-31E, Aukštis: 3 m

Dabartinis oras

Ataskaita buvo paskelbta 46 minutes, ne 14:00 UTC
Vėjas 6 kt iš Pietų/Pietryčių, svyruoja nuo Rytų ir Vakarų
Temperatūra 27°C
Drėgmė 74%
Slėgis 1010 hPa
Matomumas 10 km arba daugiau
Mažai debesys ne aukštis 2400 ft

METAR: FSIA 171400Z 16006KT 100V260 9999 FEW024 27/22 Q1010 NOSIG

Laikas: 18:46 (14:46 UTC)

Prognozė

Ataskaita buvo paskelbta 3 valandos ir 44 minutes, ne 11:02 UTC
Prognozė galioja nuo 17 metu 12 UTC su 18 metu 12 UTC
Vėjas 15 kt iš Pietų/Pietryčių
Matomumas 10 km arba daugiau
Išsisklaidę debesys ne aukštis 2200 ft
Tikimybė 40% :
Laikinai
nuo 17 metu 20 UTC su 18 metu 12 UTC
Matomumas: 8000 m
Mažai debesys ne aukštis 1300 ft
Su prošvaistėmis ne aukštis 1800 ft
lietus

TAF: FSIA 171102Z 1712/1812 16015KT 9999 SCT022 PROB40 TEMPO 1720/1812 8000 -SHRA FEW013 BKN018

Orai ataskaitas ir orų prognozės (METAR, TAF).

turimą stotys yra geltonos ir raudonos taškus žemėlapyje.

Perkelti pele per norėdami pamatyti stoties vardą.

Tada spustelėkite, norėdami matyti oro stebėjimo ir prognozės.

Norėdami pakeisti žemėlapį: spustelėkite ant žalios mygtukų su juodo kryžiaus žemyn,; žalią mygtuką su brūkšneliu, jei norite nutolinti; arba žalių rodyklių gretimoms žemėlapius.


METAR-TAF: